EIWF

Waterford Airport

Waterford, Ireland
METAR EIWF 192000Z 24013KT 210V270 7000 BKN003 15/14 Q1019
Observed Flight Rules
Jun-19 @ 20:00 UTC (19 minutes ago) Instrument Flight Rules
Wind Visibility Clouds
240° at 13 knots 7,001 meters
  • Broken at 300' AGL
Temperatures Readings
Current 15°C / 59°F
Dewpoint 14°C / 57°F
Humidity 94%
Altimeter 30.09" Hg
Pressure 1019 hPa
Elevation 36
METAR EIWF 192000Z 24013KT 210V270 7000 BKN003 15/14 Q1019
Observed Flight Rules
Jun-19 @ 20:00 UTC
(19 minutes ago)
LIFR
Wind Visibility
240° at 13 knots 7,001 meters
Clouds
  • Broken at 300' AGL
Temperature Dewpoint
15°C / 59°F 14°C / 57°F
Humidity Altimeter Pressure
94% 30.09" Hg 1019 hPa